createdAt,value
2019-03-02T00:00:04.328Z,6.10
2019-03-02T00:02:37.416Z,6.10
2019-03-02T00:05:08.660Z,6.10
2019-03-02T00:07:43.827Z,6.10
2019-03-02T00:10:14.872Z,6.10
2019-03-02T00:12:46.396Z,6.10
2019-03-02T00:15:17.642Z,6.00
2019-03-02T00:17:50.565Z,6.10
2019-03-02T00:20:22.516Z,6.10
2019-03-02T00:22:54.015Z,6.10
2019-03-02T00:25:26.109Z,6.00
2019-03-02T00:27:58.167Z,6.00
2019-03-02T00:30:30.644Z,6.00
2019-03-02T00:33:02.333Z,6.00
2019-03-02T00:35:33.570Z,6.00
2019-03-02T00:38:08.778Z,6.00
2019-03-02T00:40:38.449Z,6.00
2019-03-02T00:43:09.832Z,6.10
2019-03-02T00:45:41.002Z,6.10
2019-03-02T00:48:12.490Z,6.00
2019-03-02T00:50:43.903Z,6.00
2019-03-02T00:53:15.205Z,6.10
2019-03-02T00:55:46.652Z,6.10
2019-03-02T00:58:18.110Z,6.10
2019-03-02T01:00:50.062Z,6.20
2019-03-02T01:03:22.243Z,6.10
2019-03-02T01:05:53.370Z,6.10
2019-03-02T01:08:24.760Z,6.00
2019-03-02T01:10:58.175Z,6.00
2019-03-02T01:13:29.094Z,6.00
2019-03-02T01:16:00.278Z,6.00
2019-03-02T01:18:31.614Z,6.10
2019-03-02T01:21:03.878Z,6.00
2019-03-02T01:23:35.729Z,6.00
2019-03-02T01:26:06.824Z,6.00
2019-03-02T01:28:38.208Z,6.00
2019-03-02T01:31:09.305Z,6.00
2019-03-02T01:33:41.826Z,6.00
2019-03-02T01:36:12.977Z,6.00
2019-03-02T01:38:44.330Z,6.10
2019-03-02T01:41:17.676Z,6.10
2019-03-02T01:43:48.760Z,6.00
2019-03-02T01:46:19.910Z,6.10
2019-03-02T01:48:51.362Z,6.00
2019-03-02T01:51:23.171Z,6.00
2019-03-02T01:53:55.268Z,6.00
2019-03-02T01:56:26.415Z,5.90
2019-03-02T01:59:00.578Z,5.90
2019-03-02T02:01:30.854Z,5.90
2019-03-02T02:04:02.221Z,5.80
2019-03-02T02:06:33.338Z,5.90
2019-03-02T02:09:05.869Z,5.90
2019-03-02T02:11:39.670Z,5.90
2019-03-02T02:14:14.883Z,5.80
2019-03-02T02:16:44.876Z,5.70
2019-03-02T02:19:16.358Z,5.80
2019-03-02T02:21:47.436Z,5.80
2019-03-02T02:24:21.796Z,5.80
2019-03-02T02:26:51.682Z,5.80
2019-03-02T02:29:22.980Z,5.80
2019-03-02T02:31:54.053Z,5.80
2019-03-02T02:34:25.288Z,5.80
2019-03-02T02:36:58.177Z,5.80
2019-03-02T02:39:33.486Z,5.80
2019-03-02T02:42:05.144Z,5.80
2019-03-02T02:44:37.577Z,5.80
2019-03-02T02:47:12.211Z,5.80
2019-03-02T02:49:44.291Z,5.70
2019-03-02T02:52:14.719Z,5.70
2019-03-02T02:54:46.091Z,5.80
2019-03-02T02:57:17.344Z,5.80
2019-03-02T02:59:48.707Z,5.80
2019-03-02T03:02:19.802Z,5.80
2019-03-02T03:04:51.201Z,5.80
2019-03-02T03:07:22.288Z,5.80
2019-03-02T03:10:00.932Z,5.80
2019-03-02T03:12:33.741Z,5.90
2019-03-02T03:15:05.213Z,5.90
2019-03-02T03:17:36.451Z,5.90
2019-03-02T03:20:10.668Z,5.90
2019-03-02T03:22:41.048Z,5.90
2019-03-02T03:25:18.048Z,5.90
2019-03-02T03:27:52.047Z,5.90
2019-03-02T03:30:33.926Z,5.90
2019-03-02T03:32:59.566Z,5.90
2019-03-02T03:35:26.500Z,6.00
2019-03-02T03:37:57.593Z,6.00
2019-03-02T03:40:28.941Z,5.90
2019-03-02T03:43:03.329Z,5.90
2019-03-02T03:45:33.178Z,5.90
2019-03-02T03:48:04.247Z,5.90
2019-03-02T03:50:35.597Z,5.90
2019-03-02T03:53:06.706Z,5.90
2019-03-02T03:55:38.069Z,5.90
2019-03-02T03:58:09.170Z,5.90
2019-03-02T04:00:40.713Z,6.00
2019-03-02T04:03:13.805Z,6.00
2019-03-02T04:05:47.110Z,6.00
2019-03-02T04:08:18.824Z,6.00
2019-03-02T04:10:50.161Z,6.00
2019-03-02T04:13:21.431Z,6.00
2019-03-02T04:15:55.249Z,6.00
2019-03-02T04:18:58.191Z,6.00
2019-03-02T04:21:35.615Z,6.00
2019-03-02T04:24:06.810Z,6.00
2019-03-02T04:26:38.557Z,6.00
2019-03-02T04:29:11.767Z,6.00
2019-03-02T04:31:43.917Z,6.10
2019-03-02T04:34:21.019Z,6.10
2019-03-02T04:36:49.422Z,6.10
2019-03-02T04:39:20.468Z,6.10
2019-03-02T04:41:52.117Z,6.10
2019-03-02T04:44:25.871Z,6.20
2019-03-02T04:46:56.455Z,6.10
2019-03-02T04:49:27.803Z,6.00
2019-03-02T04:51:59.264Z,6.00
2019-03-02T04:54:30.622Z,6.10
2019-03-02T04:57:02.208Z,6.10
2019-03-02T04:59:33.371Z,6.10
2019-03-02T05:02:04.768Z,6.10
2019-03-02T05:04:35.894Z,6.10
2019-03-02T05:07:07.248Z,6.10
2019-03-02T05:09:38.426Z,6.10
2019-03-02T05:12:11.545Z,6.10
2019-03-02T05:14:42.679Z,6.00
2019-03-02T05:17:13.980Z,6.00
2019-03-02T05:19:45.237Z,6.00
2019-03-02T05:22:18.752Z,6.00
2019-03-02T05:24:49.678Z,6.10
2019-03-02T05:27:20.992Z,6.00
2019-03-02T05:29:54.459Z,6.00
2019-03-02T05:32:25.147Z,6.10
2019-03-02T05:34:56.296Z,6.10
2019-03-02T05:37:27.589Z,6.00
2019-03-02T05:39:58.717Z,6.00
2019-03-02T05:42:30.064Z,6.00
2019-03-02T05:45:02.464Z,6.10
2019-03-02T05:47:33.872Z,6.10
2019-03-02T05:50:06.542Z,6.10
2019-03-02T05:52:37.996Z,6.10
2019-03-02T05:55:09.613Z,6.10
2019-03-02T05:57:41.469Z,6.00
2019-03-02T06:00:13.704Z,6.00
2019-03-02T06:02:45.134Z,6.00
2019-03-02T06:05:16.193Z,6.00
2019-03-02T06:07:47.501Z,6.10
2019-03-02T06:10:21.658Z,6.10
2019-03-02T06:12:52.966Z,6.10
2019-03-02T06:15:24.301Z,6.10
2019-03-02T06:17:55.696Z,6.10
2019-03-02T06:20:27.038Z,6.10
2019-03-02T06:22:58.284Z,6.10
2019-03-02T06:25:29.463Z,6.10
2019-03-02T06:28:00.908Z,6.00
2019-03-02T06:30:32.010Z,6.00
2019-03-02T06:33:05.115Z,6.10
2019-03-02T06:35:36.162Z,6.20
2019-03-02T06:38:07.622Z,6.20
2019-03-02T06:40:50.785Z,6.20
2019-03-02T06:43:22.821Z,6.10
2019-03-02T06:45:54.042Z,6.10
2019-03-02T06:48:25.509Z,6.20
2019-03-02T06:50:56.824Z,6.20
2019-03-02T06:53:28.050Z,6.30
2019-03-02T06:56:00.713Z,6.40
2019-03-02T06:58:32.324Z,6.40
2019-03-02T07:01:03.466Z,6.50
2019-03-02T07:03:34.832Z,6.50
2019-03-02T07:06:08.581Z,6.50
2019-03-02T07:08:39.181Z,6.50
2019-03-02T07:11:10.387Z,6.40
2019-03-02T07:13:42.803Z,6.50
2019-03-02T07:16:16.545Z,6.50
2019-03-02T07:19:00.378Z,6.60
2019-03-02T07:21:31.708Z,6.60
2019-03-02T07:24:03.136Z,6.60
2019-03-02T07:26:35.212Z,6.70
2019-03-02T07:29:06.652Z,6.70
2019-03-02T07:31:37.812Z,6.60
2019-03-02T07:34:09.834Z,6.50
2019-03-02T07:36:41.109Z,6.50
2019-03-02T07:39:12.663Z,6.60
2019-03-02T07:41:43.756Z,6.60
2019-03-02T07:44:15.083Z,6.60
2019-03-02T07:46:47.939Z,6.60
2019-03-02T07:49:19.470Z,6.60
2019-03-02T07:51:50.732Z,6.60
2019-03-02T07:54:22.416Z,6.60
2019-03-02T07:56:53.528Z,6.70
2019-03-02T07:59:26.484Z,6.70
2019-03-02T08:01:57.808Z,6.70
2019-03-02T08:04:29.107Z,6.60
2019-03-02T08:07:01.483Z,6.70
2019-03-02T08:09:33.058Z,6.80
2019-03-02T08:12:04.203Z,6.90
2019-03-02T08:14:36.496Z,6.90
2019-03-02T08:17:09.814Z,6.90
2019-03-02T08:19:40.927Z,6.90
2019-03-02T08:22:12.180Z,7.00
2019-03-02T08:24:43.776Z,7.00
2019-03-02T08:27:15.805Z,7.10
2019-03-02T08:29:47.058Z,7.10
2019-03-02T08:32:21.156Z,7.10
2019-03-02T08:34:51.224Z,7.00
2019-03-02T08:37:22.337Z,6.90
2019-03-02T08:40:13.517Z,7.00
2019-03-02T08:42:44.741Z,7.20
2019-03-02T08:45:16.845Z,7.30
2019-03-02T08:47:48.069Z,7.40
2019-03-02T08:50:19.374Z,7.40
2019-03-02T08:52:51.494Z,7.40
2019-03-02T08:55:23.997Z,7.50
2019-03-02T08:57:57.406Z,7.50
2019-03-02T09:00:28.138Z,7.50
2019-03-02T09:03:00.417Z,7.30
2019-03-02T09:05:43.650Z,7.50
2019-03-02T09:08:05.004Z,7.50
2019-03-02T09:10:37.049Z,7.60
2019-03-02T09:13:08.413Z,7.60
2019-03-02T09:15:39.788Z,7.50
2019-03-02T09:18:10.944Z,7.60
2019-03-02T09:20:43.410Z,7.60
2019-03-02T09:23:15.171Z,7.60
2019-03-02T09:25:46.632Z,7.60
2019-03-02T09:28:17.736Z,7.80
2019-03-02T09:30:49.030Z,7.90
2019-03-02T09:33:20.125Z,8.10
2019-03-02T09:35:54.762Z,8.30
2019-03-02T09:38:24.240Z,8.00
2019-03-02T09:40:55.644Z,7.90
2019-03-02T09:43:26.744Z,8.00
2019-03-02T09:45:58.064Z,8.20
2019-03-02T09:48:29.351Z,8.20
2019-03-02T09:51:00.584Z,8.30
2019-03-02T09:53:31.785Z,8.30
2019-03-02T09:56:03.130Z,8.30
2019-03-02T09:58:35.618Z,8.20
2019-03-02T10:01:07.053Z,8.00
2019-03-02T10:03:38.228Z,8.00
2019-03-02T10:06:09.550Z,8.10
2019-03-02T10:08:42.362Z,8.30
2019-03-02T10:11:15.334Z,8.50
2019-03-02T10:13:47.456Z,8.70
2019-03-02T10:16:19.070Z,8.80
2019-03-02T10:18:50.952Z,8.70
2019-03-02T10:21:22.355Z,8.70
2019-03-02T10:23:53.436Z,8.70
2019-03-02T10:26:24.853Z,8.90
2019-03-02T10:28:55.946Z,9.00
2019-03-02T10:31:27.282Z,9.20
2019-03-02T10:33:58.438Z,9.20
2019-03-02T10:36:32.363Z,9.10
2019-03-02T10:39:04.118Z,9.20
2019-03-02T10:41:37.146Z,9.30
2019-03-02T10:44:08.246Z,9.40
2019-03-02T10:46:39.576Z,9.60
2019-03-02T10:49:13.110Z,9.70
2019-03-02T10:51:43.708Z,9.70
2019-03-02T10:54:14.841Z,9.90
2019-03-02T10:56:46.292Z,9.90
2019-03-02T10:59:17.482Z,10.30
2019-03-02T11:01:48.764Z,10.60
2019-03-02T11:04:40.973Z,10.50
2019-03-02T11:07:31.233Z,10.30
2019-03-02T11:10:30.378Z,10.10
2019-03-02T11:13:20.441Z,10.00
2019-03-02T11:16:10.728Z,10.20
2019-03-02T11:18:54.749Z,10.10
2019-03-02T11:21:43.244Z,10.00
2019-03-02T11:24:33.500Z,9.70
2019-03-02T11:27:23.588Z,9.60
2019-03-02T11:30:16.620Z,9.50
2019-03-02T11:33:06.656Z,9.50
2019-03-02T11:35:55.460Z,9.60
2019-03-02T11:38:37.276Z,9.60
2019-03-02T11:41:21.200Z,9.70
2019-03-02T11:44:18.882Z,9.50
2019-03-02T11:47:09.040Z,9.50
2019-03-02T11:50:05.154Z,9.40
2019-03-02T11:52:50.487Z,9.30
2019-03-02T11:55:47.128Z,9.20
2019-03-02T11:58:36.907Z,9.10
2019-03-02T12:01:21.960Z,9.00
2019-03-02T12:04:19.832Z,8.90
2019-03-02T12:07:08.368Z,8.70
2019-03-02T12:10:10.565Z,8.70
2019-03-02T12:13:03.884Z,8.90
2019-03-02T12:16:01.665Z,8.90
2019-03-02T12:18:40.137Z,9.00
2019-03-02T12:21:29.646Z,9.10
2019-03-02T12:24:23.281Z,9.00
2019-03-02T12:27:18.847Z,9.10
2019-03-02T12:30:00.342Z,9.30
2019-03-02T12:32:56.794Z,9.40
2019-03-02T12:35:45.646Z,9.30
2019-03-02T12:38:49.096Z,9.50
2019-03-02T12:41:38.304Z,9.70
2019-03-02T12:44:34.691Z,9.70
2019-03-02T12:47:22.114Z,9.90
2019-03-02T12:50:24.566Z,9.90
2019-03-02T12:53:16.141Z,9.90
2019-03-02T12:56:06.810Z,9.80
2019-03-02T12:58:55.370Z,9.60
2019-03-02T13:01:45.005Z,9.70
2019-03-02T13:04:34.101Z,9.40
2019-03-02T13:07:36.406Z,9.20
2019-03-02T13:10:45.541Z,9.20
2019-03-02T13:13:30.158Z,9.10
2019-03-02T13:16:23.797Z,9.20
2019-03-02T13:19:22.973Z,9.20
2019-03-02T13:22:19.099Z,9.10
2019-03-02T13:25:08.250Z,9.10
2019-03-02T13:27:49.039Z,9.10
2019-03-02T13:30:39.120Z,9.20
2019-03-02T13:33:47.757Z,9.20
2019-03-02T13:36:31.792Z,9.30
2019-03-02T13:39:18.744Z,9.30
2019-03-02T13:42:23.956Z,9.40
2019-03-02T13:45:26.413Z,9.50
2019-03-02T13:48:17.755Z,9.70
2019-03-02T13:50:58.408Z,9.80
2019-03-02T13:54:06.696Z,10.40
2019-03-02T13:56:55.988Z,10.90
2019-03-02T13:59:51.979Z,11.20
2019-03-02T14:02:45.395Z,11.00
2019-03-02T14:05:49.153Z,12.00
2019-03-02T14:08:29.772Z,12.60
2019-03-02T14:11:09.162Z,11.60
2019-03-02T14:13:59.488Z,11.70
2019-03-02T14:16:55.252Z,12.20
2019-03-02T14:19:42.057Z,12.20
2019-03-02T14:22:32.767Z,11.60
2019-03-02T14:25:31.952Z,11.70
2019-03-02T14:28:12.332Z,12.10
2019-03-02T14:31:02.607Z,12.20
2019-03-02T14:33:52.188Z,12.40
2019-03-02T14:36:45.434Z,12.90
2019-03-02T14:39:44.796Z,13.70
2019-03-02T14:42:35.043Z,13.70
2019-03-02T14:45:15.945Z,13.70
2019-03-02T14:48:37.624Z,13.80
2019-03-02T14:51:34.696Z,13.90
2019-03-02T14:54:30.903Z,12.50
2019-03-02T14:57:27.256Z,12.30
2019-03-02T15:00:07.842Z,12.30
2019-03-02T15:03:02.324Z,13.20
2019-03-02T15:05:53.198Z,14.20
2019-03-02T15:08:41.255Z,14.70
2019-03-02T15:11:36.442Z,15.40
2019-03-02T15:14:26.446Z,14.30
2019-03-02T15:17:05.170Z,13.80
2019-03-02T15:19:58.291Z,14.00
2019-03-02T15:22:48.520Z,13.60
2019-03-02T15:25:56.684Z,13.60
2019-03-02T15:28:59.123Z,14.30
2019-03-02T15:31:46.970Z,14.80
2019-03-02T15:34:31.196Z,14.50
2019-03-02T15:37:24.442Z,14.20
2019-03-02T15:40:07.090Z,14.90
2019-03-02T15:42:58.494Z,14.70
2019-03-02T15:45:40.318Z,14.00
2019-03-02T15:48:28.624Z,12.70
2019-03-02T15:51:22.314Z,12.00
2019-03-02T15:54:07.010Z,11.80
2019-03-02T15:56:55.828Z,11.60
2019-03-02T15:59:54.306Z,11.80
2019-03-02T16:02:50.657Z,11.20
2019-03-02T16:05:44.103Z,10.80
2019-03-02T16:08:35.869Z,10.70
2019-03-02T16:11:44.411Z,10.50
2019-03-02T16:14:36.342Z,10.40
2019-03-02T16:17:17.102Z,10.30
2019-03-02T16:20:18.462Z,10.20
2019-03-02T16:23:14.442Z,10.20
2019-03-02T16:26:04.795Z,10.10
2019-03-02T16:28:55.110Z,10.10
2019-03-02T16:31:45.177Z,10.10
2019-03-02T16:34:48.447Z,10.10
2019-03-02T16:37:41.630Z,10.00
2019-03-02T16:40:35.127Z,10.00
2019-03-02T16:43:30.848Z,9.80
2019-03-02T16:46:10.364Z,9.80
2019-03-02T16:48:54.787Z,9.80
2019-03-02T16:52:06.277Z,9.80
2019-03-02T16:54:56.715Z,9.70
2019-03-02T16:57:52.193Z,9.70
2019-03-02T17:00:49.554Z,9.70
2019-03-02T17:03:43.848Z,9.70
2019-03-02T17:06:28.286Z,9.60
2019-03-02T17:09:16.962Z,9.60
2019-03-02T17:12:12.298Z,9.70
2019-03-02T17:15:01.704Z,9.60
2019-03-02T17:18:00.128Z,9.60
2019-03-02T17:20:53.195Z,9.60
2019-03-02T17:23:42.588Z,9.50
2019-03-02T17:26:29.294Z,9.50
2019-03-02T17:29:18.317Z,9.50
2019-03-02T17:32:06.870Z,9.50
2019-03-02T17:35:01.166Z,9.50
2019-03-02T17:37:57.970Z,9.40
2019-03-02T17:40:51.303Z,9.40
2019-03-02T17:43:46.578Z,9.40
2019-03-02T17:46:32.304Z,9.30
2019-03-02T17:49:28.802Z,9.30
2019-03-02T17:52:09.294Z,9.20
2019-03-02T17:54:51.239Z,9.30
2019-03-02T17:57:43.894Z,9.30
2019-03-02T18:00:30.272Z,9.30
2019-03-02T18:03:38.882Z,9.30
2019-03-02T18:06:27.314Z,9.30
2019-03-02T18:09:06.028Z,9.30
2019-03-02T18:12:06.483Z,9.30
2019-03-02T18:14:56.794Z,9.30
2019-03-02T18:17:35.817Z,9.30
2019-03-02T18:20:08.243Z,9.20
2019-03-02T18:22:39.438Z,9.20
2019-03-02T18:25:11.945Z,9.10
2019-03-02T18:27:44.055Z,9.20
2019-03-02T18:30:16.876Z,9.20
2019-03-02T18:32:49.687Z,9.10
2019-03-02T18:35:21.086Z,9.00
2019-03-02T18:37:52.239Z,9.00
2019-03-02T18:40:23.704Z,9.00
2019-03-02T18:42:54.852Z,8.90
2019-03-02T18:45:26.163Z,9.00
2019-03-02T18:47:59.279Z,9.00
2019-03-02T18:50:39.918Z,9.00
2019-03-02T18:53:11.062Z,8.90
2019-03-02T18:55:42.414Z,8.90
2019-03-02T18:58:13.595Z,8.90
2019-03-02T19:00:48.080Z,8.90
2019-03-02T19:03:20.961Z,8.90
2019-03-02T19:05:52.393Z,8.90
2019-03-02T19:08:25.379Z,8.80
2019-03-02T19:10:57.307Z,8.80
2019-03-02T19:13:28.728Z,8.80
2019-03-02T19:16:00.076Z,8.80
2019-03-02T19:18:31.328Z,8.90
2019-03-02T19:21:02.874Z,8.80
2019-03-02T19:23:34.220Z,8.80
2019-03-02T19:26:05.782Z,8.80
2019-03-02T19:28:36.914Z,8.80
2019-03-02T19:31:08.178Z,8.80
2019-03-02T19:33:39.293Z,8.80
2019-03-02T19:36:10.773Z,8.80
2019-03-02T19:38:41.959Z,8.80
2019-03-02T19:41:13.362Z,8.80
2019-03-02T19:43:44.774Z,8.80
2019-03-02T19:46:16.223Z,8.80
2019-03-02T19:48:47.438Z,8.80
2019-03-02T19:51:18.781Z,8.80
2019-03-02T19:53:50.106Z,8.70
2019-03-02T19:56:21.668Z,8.70
2019-03-02T19:58:52.817Z,8.60
2019-03-02T20:01:24.180Z,8.70
2019-03-02T20:03:55.535Z,8.70
2019-03-02T20:06:26.872Z,8.70
2019-03-02T20:08:58.206Z,8.70
2019-03-02T20:11:29.968Z,8.70
2019-03-02T20:14:01.210Z,8.70
2019-03-02T20:16:32.766Z,8.60
2019-03-02T20:19:03.990Z,8.70
2019-03-02T20:21:35.486Z,8.60
2019-03-02T20:24:07.704Z,8.70
2019-03-02T20:26:39.492Z,8.70
2019-03-02T20:29:10.652Z,8.60
2019-03-02T20:31:43.174Z,8.60
2019-03-02T20:34:14.394Z,8.60
2019-03-02T20:36:45.935Z,8.60
2019-03-02T20:39:17.385Z,8.60
2019-03-02T20:41:49.040Z,8.50
2019-03-02T20:44:21.308Z,8.50
2019-03-02T20:46:52.868Z,8.50
2019-03-02T20:49:24.192Z,8.50
2019-03-02T20:51:56.790Z,8.50
2019-03-02T20:54:27.994Z,8.50
2019-03-02T20:56:59.391Z,8.50
2019-03-02T20:59:30.577Z,8.50
2019-03-02T21:02:02.191Z,8.40
2019-03-02T21:04:33.532Z,8.40
2019-03-02T21:07:04.792Z,8.50
2019-03-02T21:09:36.084Z,8.50
2019-03-02T21:12:07.674Z,8.40
2019-03-02T21:14:38.834Z,8.40
2019-03-02T21:17:10.374Z,8.40
2019-03-02T21:19:41.536Z,8.40
2019-03-02T21:22:12.892Z,8.40
2019-03-02T21:24:44.100Z,8.40
2019-03-02T21:27:17.240Z,8.40
2019-03-02T21:29:49.714Z,8.40
2019-03-02T21:32:20.994Z,8.30
2019-03-02T21:34:52.203Z,8.30
2019-03-02T21:37:23.518Z,8.20
2019-03-02T21:39:54.692Z,8.20
2019-03-02T21:42:26.134Z,8.20
2019-03-02T21:44:58.665Z,8.30
2019-03-02T21:47:30.054Z,8.20
2019-03-02T21:50:01.503Z,8.20
2019-03-02T21:52:34.502Z,8.20
2019-03-02T21:55:05.794Z,8.20
2019-03-02T21:57:37.550Z,8.20
2019-03-02T22:00:14.475Z,8.20
2019-03-02T22:02:46.232Z,8.20
2019-03-02T22:05:17.331Z,8.20
2019-03-02T22:07:48.662Z,8.20
2019-03-02T22:10:24.631Z,8.10
2019-03-02T22:12:56.049Z,8.10
2019-03-02T22:15:27.218Z,8.10
2019-03-02T22:17:58.734Z,8.10
2019-03-02T22:20:29.904Z,8.10
2019-03-02T22:23:01.087Z,8.20
2019-03-02T22:25:33.354Z,8.10
2019-03-02T22:28:04.746Z,8.10
2019-03-02T22:30:35.836Z,8.00
2019-03-02T22:33:07.139Z,8.00
2019-03-02T22:35:38.224Z,8.00
2019-03-02T22:38:09.556Z,8.00
2019-03-02T22:40:40.722Z,8.10
2019-03-02T22:43:11.975Z,8.10
2019-03-02T22:45:43.092Z,8.10
2019-03-02T22:48:14.526Z,8.10
2019-03-02T22:50:46.820Z,8.10
2019-03-02T22:53:18.350Z,8.10
2019-03-02T22:55:49.534Z,8.10
2019-03-02T22:58:20.951Z,8.00
2019-03-02T23:01:32.550Z,8.00
2019-03-02T23:04:04.152Z,8.00
2019-03-02T23:06:35.268Z,8.00
2019-03-02T23:09:11.952Z,8.00
2019-03-02T23:11:43.617Z,8.00
2019-03-02T23:14:16.355Z,8.00
2019-03-02T23:16:47.614Z,8.00
2019-03-02T23:19:19.059Z,8.00
2019-03-02T23:21:50.197Z,8.10
2019-03-02T23:24:21.562Z,8.10
2019-03-02T23:26:52.687Z,8.10
2019-03-02T23:29:24.046Z,8.00
2019-03-02T23:31:55.329Z,8.00
2019-03-02T23:34:36.885Z,8.00
2019-03-02T23:37:01.355Z,8.00
2019-03-02T23:39:32.825Z,8.10
2019-03-02T23:42:03.915Z,8.10
2019-03-02T23:44:35.311Z,8.00
2019-03-02T23:47:06.427Z,8.10
2019-03-02T23:49:37.911Z,8.00
2019-03-02T23:52:08.987Z,8.10
2019-03-02T23:54:40.396Z,8.00
2019-03-02T23:57:11.527Z,8.10
2019-03-02T23:59:43.202Z,8.00
